Time;durP1;ratioP1;P1;durP2;ratioP2;P2;SDS_P1;SDS_P2;PMS_P1;PMS_P2;Temp;Humidity;BMP_temperature;BMP_pressure;BME280_temperature;BME280_humidity;BME280_pressure;Samples;Min_cycle;Max_cycle;Signal;HPM_P1;HPM_P2
2021/06/10 00:01:35;;;;;;;3.60;3.30;;;;;;;;;;5068923;28;20049;-71
2021/06/10 00:04:01;;;;;;;2.83;2.63;;;;;;;;;;5068299;28;20109;-71
2021/06/10 00:06:27;;;;;;;2.92;2.70;;;;;;;;;;5069372;28;20047;-71
2021/06/10 00:08:53;;;;;;;2.90;2.70;;;;;;;;;;5068318;28;20060;-71
2021/06/10 00:11:19;;;;;;;3.08;2.88;;;;;;;;;;5069096;28;20040;-71
2021/06/10 00:13:45;;;;;;;2.65;2.45;;;;;;;;;;5068653;28;20048;-71
2021/06/10 00:16:11;;;;;;;3.70;3.33;;;;;;;;;;5069040;28;20102;-71
2021/06/10 00:18:37;;;;;;;3.10;2.90;;;;;;;;;;5069027;28;20125;-71
2021/06/10 00:21:04;;;;;;;2.97;2.78;;;;;;;;;;5068572;28;20129;-71
2021/06/10 00:23:30;;;;;;;3.72;3.42;;;;;;;;;;5068848;28;20123;-72
2021/06/10 00:25:56;;;;;;;3.28;3.08;;;;;;;;;;5068418;28;20047;-71
2021/06/10 00:28:22;;;;;;;3.10;2.90;;;;;;;;;;5069126;28;20040;-71
2021/06/10 00:30:48;;;;;;;5.25;3.08;;;;;;;;;;5068576;28;20041;-71
2021/06/10 00:33:14;;;;;;;3.22;3.03;;;;;;;;;;5068335;28;20082;-72
2021/06/10 00:35:40;;;;;;;3.35;3.00;;;;;;;;;;5072269;28;20088;-72
2021/06/10 00:38:06;;;;;;;3.65;3.33;;;;;;;;;;5072346;28;20073;-71
2021/06/10 00:40:33;;;;;;;3.63;3.33;;;;;;;;;;5072890;28;20091;-71
2021/06/10 00:43:00;;;;;;;4.03;3.30;;;;;;;;;;5071575;28;20434;-71
2021/06/10 00:45:26;;;;;;;3.40;2.83;;;;;;;;;;5072614;28;20132;-71
2021/06/10 00:47:53;;;;;;;2.30;2.20;;;;;;;;;;5072125;28;20408;-72
2021/06/10 00:50:21;;;;;;;3.03;2.75;;;;;;;;;;5072831;28;20414;-72
2021/06/10 00:52:47;;;;;;;2.95;2.75;;;;;;;;;;5071778;28;20048;-72
2021/06/10 00:55:14;;;;;;;2.95;2.75;;;;;;;;;;5072246;28;20075;-72
2021/06/10 00:57:40;;;;;;;3.45;3.25;;;;;;;;;;5072724;28;20044;-72
2021/06/10 01:00:08;;;;;;;3.25;2.95;;;;;;;;;;5072038;28;20129;-72
2021/06/10 01:02:34;;;;;;;3.30;3.10;;;;;;;;;;5071835;28;20059;-72
2021/06/10 01:05:00;;;;;;;3.20;3.00;;;;;;;;;;5071542;28;20053;-72
2021/06/10 01:07:43;;;;;;;2.53;2.33;;;;;;;;;;5072275;28;20063;-72
2021/06/10 01:10:18;;;;;;;3.15;2.90;;;;;;;;;;5070462;28;20605;-72
2021/06/10 01:12:55;;;;;;;3.30;3.00;;;;;;;;;;5070761;28;20123;-72
2021/06/10 01:15:24;;;;;;;3.28;3.08;;;;;;;;;;5070086;28;20058;-72
2021/06/10 01:17:50;;;;;;;3.22;3.03;;;;;;;;;;5071900;28;20159;-72
2021/06/10 01:20:21;;;;;;;3.05;2.85;;;;;;;;;;5072221;28;20083;-72
2021/06/10 01:23:07;;;;;;;3.47;3.17;;;;;;;;;;5071584;28;20044;-71
2021/06/10 01:25:53;;;;;;;3.05;2.80;;;;;;;;;;5056794;28;20037;-71
2021/06/10 01:28:22;;;;;;;3.50;3.03;;;;;;;;;;5071680;28;20055;-72
2021/06/10 01:30:49;;;;;;;3.70;2.33;;;;;;;;;;5071236;28;20057;-72
2021/06/10 01:33:20;;;;;;;2.90;2.58;;;;;;;;;;5071108;28;20055;-72
2021/06/10 01:35:52;;;;;;;2.95;2.67;;;;;;;;;;5071173;28;20055;-72
2021/06/10 01:38:18;;;;;;;3.50;2.75;;;;;;;;;;5071879;28;20127;-71
2021/06/10 01:40:45;;;;;;;2.72;2.60;;;;;;;;;;5072106;28;20102;-71
2021/06/10 01:43:12;;;;;;;4.05;3.10;;;;;;;;;;5071070;28;20052;-71
2021/06/10 01:45:39;;;;;;;2.42;2.33;;;;;;;;;;5070898;28;20048;-71
2021/06/10 01:48:05;;;;;;;3.20;3.00;;;;;;;;;;5071036;28;20142;-71
2021/06/10 01:50:31;;;;;;;2.88;2.67;;;;;;;;;;5071579;28;20097;-71
2021/06/10 01:52:58;;;;;;;3.70;3.42;;;;;;;;;;5070320;28;20510;-71
2021/06/10 01:55:27;;;;;;;3.78;3.47;;;;;;;;;;5071266;28;20052;-71
2021/06/10 01:57:55;;;;;;;2.90;2.70;;;;;;;;;;5070882;28;20045;-71
2021/06/10 02:00:23;;;;;;;2.88;2.60;;;;;;;;;;5071866;28;20051;-71
2021/06/10 02:02:51;;;;;;;3.92;3.72;;;;;;;;;;5070483;28;20055;-71
2021/06/10 02:05:19;;;;;;;3.45;2.83;;;;;;;;;;5071289;28;20106;-71
2021/06/10 02:07:45;;;;;;;3.97;3.67;;;;;;;;;;5071457;28;20454;-71
2021/06/10 02:10:13;;;;;;;3.35;3.08;;;;;;;;;;5071177;28;20045;-71
2021/06/10 02:12:39;;;;;;;3.22;2.97;;;;;;;;;;5070921;28;20239;-71
2021/06/10 02:15:07;;;;;;;2.67;2.47;;;;;;;;;;5070297;28;20593;-71
2021/06/10 02:17:34;;;;;;;3.75;2.90;;;;;;;;;;5071553;28;20045;-71
2021/06/10 02:20:01;;;;;;;3.42;3.13;;;;;;;;;;5070399;28;20506;-72
2021/06/10 02:22:27;;;;;;;3.35;3.05;;;;;;;;;;5070698;28;20040;-72
2021/06/10 02:24:54;;;;;;;3.72;3.40;;;;;;;;;;5070034;28;20126;-72
2021/06/10 02:27:20;;;;;;;3.70;3.25;;;;;;;;;;5070711;28;20506;-72
2021/06/10 02:29:46;;;;;;;3.25;3.05;;;;;;;;;;5069454;28;20414;-72
2021/06/10 02:32:12;;;;;;;3.20;3.00;;;;;;;;;;5069386;28;20045;-71
2021/06/10 02:34:38;;;;;;;3.88;3.53;;;;;;;;;;5069739;28;20045;-71
2021/06/10 02:37:05;;;;;;;3.03;2.83;;;;;;;;;;5069834;28;20052;-71
2021/06/10 02:39:32;;;;;;;3.55;2.85;;;;;;;;;;5070335;28;20098;-71
2021/06/10 02:41:59;;;;;;;2.97;2.78;;;;;;;;;;5069463;28;20051;-71
2021/06/10 02:44:26;;;;;;;3.95;3.67;;;;;;;;;;5070036;28;20298;-71
2021/06/10 02:46:52;;;;;;;3.60;3.30;;;;;;;;;;5069621;28;20392;-71
2021/06/10 02:49:19;;;;;;;3.70;3.40;;;;;;;;;;5070233;28;20050;-71
2021/06/10 02:51:45;;;;;;;3.53;2.50;;;;;;;;;;5069957;28;20044;-71
2021/06/10 02:54:13;;;;;;;4.07;3.55;;;;;;;;;;5068478;28;20514;-71
2021/06/10 02:56:40;;;;;;;3.38;3.17;;;;;;;;;;5070123;28;20044;-71
2021/06/10 02:59:07;;;;;;;3.33;3.05;;;;;;;;;;5069373;28;20097;-72
2021/06/10 03:01:36;;;;;;;3.22;3.00;;;;;;;;;;5069591;28;20055;-72
2021/06/10 03:04:03;;;;;;;4.40;3.58;;;;;;;;;;5068849;28;20056;-71
2021/06/10 03:06:29;;;;;;;3.83;3.53;;;;;;;;;;5069696;28;20476;-71
2021/06/10 03:08:55;;;;;;;16.15;3.90;;;;;;;;;;5069013;28;20098;-71
2021/06/10 03:11:22;;;;;;;3.75;3.45;;;;;;;;;;5069611;28;20507;-71
2021/06/10 03:13:49;;;;;;;3.47;3.28;;;;;;;;;;5069012;28;20475;-71
2021/06/10 03:16:15;;;;;;;3.22;3.03;;;;;;;;;;5069771;28;20154;-71
2021/06/10 03:18:42;;;;;;;3.40;3.20;;;;;;;;;;5069912;28;20131;-71
2021/06/10 03:21:08;;;;;;;3.58;3.28;;;;;;;;;;5068721;28;20787;-71
2021/06/10 03:23:35;;;;;;;3.05;2.75;;;;;;;;;;5069089;28;20150;-71
2021/06/10 03:26:02;;;;;;;3.78;3.47;;;;;;;;;;5068750;28;20069;-71
2021/06/10 03:28:29;;;;;;;3.58;3.28;;;;;;;;;;5069749;28;20044;-72
2021/06/10 03:30:55;;;;;;;2.85;2.60;;;;;;;;;;5068050;28;20075;-71
2021/06/10 03:33:22;;;;;;;2.92;2.65;;;;;;;;;;5068674;28;20063;-71
2021/06/10 03:35:48;;;;;;;4.15;2.90;;;;;;;;;;5068797;28;20097;-71
2021/06/10 03:38:15;;;;;;;2.92;2.72;;;;;;;;;;5068907;28;20163;-71
2021/06/10 03:40:43;;;;;;;2.63;2.42;;;;;;;;;;5069318;28;20056;-71
2021/06/10 03:43:09;;;;;;;3.47;3.17;;;;;;;;;;5067776;28;20404;-71
2021/06/10 03:45:36;;;;;;;3.33;2.60;;;;;;;;;;5069141;28;20064;-71
2021/06/10 03:48:03;;;;;;;3.63;3.33;;;;;;;;;;5068722;28;20091;-71
2021/06/10 03:50:32;;;;;;;3.58;3.30;;;;;;;;;;5069242;28;20052;-71
2021/06/10 03:52:59;;;;;;;2.97;2.78;;;;;;;;;;5066279;28;20048;-71
2021/06/10 03:55:25;;;;;;;2.97;2.78;;;;;;;;;;5069411;28;20087;-71
2021/06/10 03:57:51;;;;;;;2.97;2.78;;;;;;;;;;5068880;28;21054;-71
2021/06/10 04:00:18;;;;;;;3.97;3.67;;;;;;;;;;5068893;28;20388;-72
2021/06/10 04:02:44;;;;;;;3.47;3.28;;;;;;;;;;5068789;28;20449;-72
2021/06/10 04:05:10;;;;;;;3.70;2.30;;;;;;;;;;5068320;28;20670;-72
2021/06/10 04:07:36;;;;;;;2.80;2.60;;;;;;;;;;5069401;28;20390;-72
2021/06/10 04:10:03;;;;;;;3.47;3.17;;;;;;;;;;5068035;28;20048;-72
2021/06/10 04:12:30;;;;;;;3.22;3.00;;;;;;;;;;5069037;28;20036;-72
2021/06/10 04:14:56;;;;;;;3.45;3.15;;;;;;;;;;5068280;28;20056;-72
2021/06/10 04:17:22;;;;;;;3.33;3.03;;;;;;;;;;5069208;28;20056;-72
2021/06/10 04:19:48;;;;;;;3.65;3.35;;;;;;;;;;5068586;28;20059;-72
2021/06/10 04:22:14;;;;;;;3.67;3.38;;;;;;;;;;5068146;28;20135;-72
2021/06/10 04:24:40;;;;;;;2.85;2.65;;;;;;;;;;5068674;28;20102;-72
2021/06/10 04:27:06;;;;;;;3.25;3.05;;;;;;;;;;5068286;28;20812;-72
2021/06/10 04:29:33;;;;;;;4.65;4.35;;;;;;;;;;5068731;28;20047;-72
2021/06/10 04:31:59;;;;;;;3.17;2.95;;;;;;;;;;5067599;28;20514;-72
2021/06/10 04:34:25;;;;;;;2.95;2.75;;;;;;;;;;5068488;28;20083;-72
2021/06/10 04:36:51;;;;;;;3.55;3.25;;;;;;;;;;5068737;28;20407;-72
2021/06/10 04:39:17;;;;;;;3.20;3.00;;;;;;;;;;5068916;28;20533;-72
2021/06/10 04:41:43;;;;;;;3.58;3.35;;;;;;;;;;5068899;28;20503;-72
2021/06/10 04:44:09;;;;;;;3.25;2.92;;;;;;;;;;5068154;28;20056;-72
2021/06/10 04:46:35;;;;;;;5.88;3.75;;;;;;;;;;5069009;28;20514;-72
2021/06/10 04:49:02;;;;;;;3.05;2.80;;;;;;;;;;5068335;28;20080;-72
2021/06/10 04:51:29;;;;;;;3.05;2.85;;;;;;;;;;5068961;28;20117;-72
2021/06/10 04:53:55;;;;;;;2.50;2.30;;;;;;;;;;5067618;28;20402;-72
2021/06/10 04:56:21;;;;;;;6.15;3.08;;;;;;;;;;5068752;28;20083;-72
2021/06/10 04:58:47;;;;;;;3.45;3.15;;;;;;;;;;5068663;28;20139;-71
2021/06/10 05:01:14;;;;;;;3.20;2.90;;;;;;;;;;5068450;28;20052;-72
2021/06/10 05:03:40;;;;;;;3.83;3.53;;;;;;;;;;5068750;28;20422;-72
2021/06/10 05:06:06;;;;;;;3.05;2.85;;;;;;;;;;5068224;28;20577;-72
2021/06/10 05:08:32;;;;;;;4.68;2.72;;;;;;;;;;5068902;28;20049;-72
2021/06/10 05:10:58;;;;;;;4.30;3.97;;;;;;;;;;5068190;28;20098;-72
2021/06/10 05:13:25;;;;;;;2.97;2.78;;;;;;;;;;5068229;28;20053;-72
2021/06/10 05:15:51;;;;;;;2.80;2.60;;;;;;;;;;5068138;28;20053;-72
2021/06/10 05:18:17;;;;;;;3.10;2.90;;;;;;;;;;5068548;28;20053;-72
2021/06/10 05:20:43;;;;;;;3.72;3.25;;;;;;;;;;5068781;28;20048;-72
2021/06/10 05:23:09;;;;;;;3.50;3.15;;;;;;;;;;5071164;28;20060;-72
2021/06/10 05:25:35;;;;;;;4.18;3.78;;;;;;;;;;5072068;28;20052;-72
2021/06/10 05:28:01;;;;;;;2.72;2.53;;;;;;;;;;5071535;28;20106;-72
2021/06/10 05:30:27;;;;;;;2.92;2.70;;;;;;;;;;5071913;28;20102;-72
2021/06/10 05:32:54;;;;;;;3.80;3.50;;;;;;;;;;5077079;28;20117;-72
2021/06/10 05:35:20;;;;;;;4.03;3.63;;;;;;;;;;5072310;28;20105;-72
2021/06/10 05:37:46;;;;;;;6.47;4.55;;;;;;;;;;5084887;28;20041;-72
2021/06/10 05:40:13;;;;;;;6.13;5.10;;;;;;;;;;5069810;28;20492;-72
2021/06/10 05:42:39;;;;;;;6.18;5.25;;;;;;;;;;5071162;28;20033;-72
2021/06/10 05:45:06;;;;;;;9.07;5.22;;;;;;;;;;5070712;28;20056;-72
2021/06/10 05:47:32;;;;;;;7.78;5.43;;;;;;;;;;5071557;28;20040;-72
2021/06/10 05:49:58;;;;;;;7.30;4.95;;;;;;;;;;5068310;28;20450;-72
2021/06/10 05:52:25;;;;;;;7.78;6.05;;;;;;;;;;5070936;28;20524;-71
2021/06/10 05:54:51;;;;;;;7.20;5.07;;;;;;;;;;5070136;28;20056;-71
2021/06/10 05:57:18;;;;;;;16.95;6.15;;;;;;;;;;5070766;28;20048;-71
2021/06/10 05:59:47;;;;;;;6.70;5.90;;;;;;;;;;5070813;28;20052;-71
2021/06/10 06:02:13;;;;;;;8.30;5.68;;;;;;;;;;5067057;28;20051;-71
2021/06/10 06:04:39;;;;;;;6.82;5.82;;;;;;;;;;5066722;28;20045;-72
2021/06/10 06:07:05;;;;;;;7.72;4.97;;;;;;;;;;5067113;28;20601;-71
2021/06/10 06:09:31;;;;;;;7.13;5.40;;;;;;;;;;5068783;28;20060;-72
2021/06/10 06:11:57;;;;;;;7.93;5.30;;;;;;;;;;5069167;28;20040;-72
2021/06/10 06:14:28;;;;;;;8.40;5.78;;;;;;;;;;5068750;28;20501;-72
2021/06/10 06:16:54;;;;;;;8.70;6.30;;;;;;;;;;5068513;28;20049;-73
2021/06/10 06:19:20;;;;;;;9.88;5.30;;;;;;;;;;5064335;28;20132;-72
2021/06/10 06:21:47;;;;;;;7.50;5.25;;;;;;;;;;5065475;28;20040;-73
2021/06/10 06:24:13;;;;;;;7.57;6.07;;;;;;;;;;5058642;28;20106;-71
2021/06/10 06:26:39;;;;;;;6.95;5.75;;;;;;;;;;5065950;28;20442;-73
2021/06/10 06:29:06;;;;;;;11.50;5.75;;;;;;;;;;5047899;28;20463;-73
2021/06/10 06:31:32;;;;;;;8.00;5.30;;;;;;;;;;5065537;28;20032;-73
2021/06/10 06:33:59;;;;;;;6.97;6.38;;;;;;;;;;5045488;28;20461;-72
2021/06/10 06:36:25;;;;;;;10.80;8.50;;;;;;;;;;5060052;28;20468;-73
2021/06/10 06:38:51;;;;;;;12.98;8.32;;;;;;;;;;5047124;28;20048;-72
2021/06/10 06:41:19;;;;;;;11.15;5.80;;;;;;;;;;5065486;28;20500;-73
2021/06/10 06:43:45;;;;;;;7.78;5.93;;;;;;;;;;5061174;28;20597;-73
2021/06/10 06:46:11;;;;;;;7.20;6.47;;;;;;;;;;5067879;28;20032;-72
2021/06/10 06:48:38;;;;;;;7.30;6.63;;;;;;;;;;5065850;28;20043;-72
2021/06/10 06:51:04;;;;;;;10.05;7.25;;;;;;;;;;5064647;28;20058;-72
2021/06/10 06:53:31;;;;;;;8.93;7.35;;;;;;;;;;5064735;28;20097;-73
2021/06/10 06:55:57;;;;;;;8.93;6.95;;;;;;;;;;5060075;28;20520;-72
2021/06/10 06:58:23;;;;;;;11.80;8.65;;;;;;;;;;5058960;28;20093;-72
2021/06/10 07:00:50;;;;;;;6.97;6.38;;;;;;;;;;5060557;28;20135;-72
2021/06/10 07:03:16;;;;;;;9.35;6.97;;;;;;;;;;5061416;28;20506;-72
2021/06/10 07:05:42;;;;;;;11.90;6.78;;;;;;;;;;5061687;28;20052;-69
2021/06/10 07:08:08;;;;;;;9.32;7.25;;;;;;;;;;5060320;28;20056;-72
2021/06/10 07:10:34;;;;;;;10.13;7.10;;;;;;;;;;5059291;28;20071;-73
2021/06/10 07:13:00;;;;;;;8.30;6.90;;;;;;;;;;5060057;28;20479;-73
2021/06/10 07:15:27;;;;;;;14.35;7.25;;;;;;;;;;5059265;28;20048;-74
2021/06/10 07:17:53;;;;;;;8.10;7.32;;;;;;;;;;5053818;28;20076;-72
2021/06/10 07:20:19;;;;;;;10.20;7.72;;;;;;;;;;5058626;28;20399;-72
2021/06/10 07:22:45;;;;;;;14.25;7.60;;;;;;;;;;5055103;28;20079;-71
2021/06/10 07:25:11;;;;;;;9.23;7.30;;;;;;;;;;5059026;28;20045;-74
2021/06/10 07:27:38;;;;;;;10.20;9.20;;;;;;;;;;5061277;28;20130;-71
2021/06/10 07:30:05;;;;;;;9.25;7.47;;;;;;;;;;5060217;28;20048;-71
2021/06/10 07:32:31;;;;;;;9.95;7.68;;;;;;;;;;5057053;28;20114;-71
2021/06/10 07:34:58;;;;;;;11.40;7.82;;;;;;;;;;5058179;28;20043;-73
2021/06/10 07:37:24;;;;;;;7.68;6.78;;;;;;;;;;5060311;28;20102;-73
2021/06/10 07:39:50;;;;;;;9.85;8.45;;;;;;;;;;5060231;28;20530;-72
2021/06/10 07:42:16;;;;;;;9.25;8.07;;;;;;;;;;5065802;28;20033;-72
2021/06/10 07:44:42;;;;;;;8.00;7.05;;;;;;;;;;5063852;28;20518;-72
2021/06/10 07:47:09;;;;;;;7.97;7.32;;;;;;;;;;5064049;28;20429;-72
2021/06/10 07:49:35;;;;;;;10.15;7.20;;;;;;;;;;5065271;28;20057;-72
2021/06/10 07:52:01;;;;;;;10.25;7.22;;;;;;;;;;5064135;28;20071;-73
2021/06/10 07:54:28;;;;;;;12.05;6.88;;;;;;;;;;5064605;28;20055;-72
2021/06/10 07:56:54;;;;;;;11.10;7.60;;;;;;;;;;5063694;28;20097;-72
2021/06/10 07:59:25;;;;;;;7.65;6.53;;;;;;;;;;5064460;28;20183;-72
2021/06/10 08:01:55;;;;;;;7.95;6.13;;;;;;;;;;5064960;28;20127;-72
2021/06/10 08:04:21;;;;;;;14.85;8.13;;;;;;;;;;5063488;28;20045;-72
2021/06/10 08:06:47;;;;;;;8.48;5.93;;;;;;;;;;5064656;28;20072;-72
2021/06/10 08:09:13;;;;;;;7.03;6.03;;;;;;;;;;5065336;28;20086;-72
2021/06/10 08:11:44;;;;;;;10.18;6.00;;;;;;;;;;5064199;28;20606;-72
2021/06/10 08:14:10;;;;;;;7.55;6.00;;;;;;;;;;5046389;28;20056;-70
2021/06/10 08:16:36;;;;;;;7.07;6.13;;;;;;;;;;5064955;28;20053;-73
2021/06/10 08:19:03;;;;;;;8.15;5.95;;;;;;;;;;5066144;28;20571;-72
2021/06/10 08:21:29;;;;;;;8.27;6.20;;;;;;;;;;5066947;28;20076;-72
2021/06/10 08:23:55;;;;;;;7.65;5.80;;;;;;;;;;5065780;28;20087;-72
2021/06/10 08:26:21;;;;;;;7.70;5.70;;;;;;;;;;5066493;28;20087;-72
2021/06/10 08:28:48;;;;;;;6.45;5.68;;;;;;;;;;5066071;28;20078;-71
2021/06/10 08:31:16;;;;;;;7.63;6.45;;;;;;;;;;5065259;28;20052;-72
2021/06/10 08:33:42;;;;;;;11.35;7.60;;;;;;;;;;5066441;28;20044;-72
2021/06/10 08:36:08;;;;;;;9.02;5.32;;;;;;;;;;5065234;28;20188;-71
2021/06/10 08:38:35;;;;;;;9.57;6.25;;;;;;;;;;5066567;28;20052;-71
2021/06/10 08:41:02;;;;;;;5.13;4.57;;;;;;;;;;5064986;28;20399;-72
2021/06/10 08:43:28;;;;;;;11.43;6.10;;;;;;;;;;5063156;28;20045;-71
2021/06/10 08:46:02;;;;;;;6.82;5.07;;;;;;;;;;5064688;28;20052;-72
2021/06/10 08:48:35;;;;;;;6.65;5.63;;;;;;;;;;5065830;28;20041;-72
2021/06/10 08:51:02;;;;;;;7.60;5.03;;;;;;;;;;5065407;28;20053;-71
2021/06/10 08:53:28;;;;;;;6.82;6.13;;;;;;;;;;5065821;28;20054;-72
2021/06/10 08:55:56;;;;;;;7.05;6.35;;;;;;;;;;5066097;28;20047;-72
2021/06/10 08:58:23;;;;;;;6.88;6.10;;;;;;;;;;5069551;28;20507;-72
2021/06/10 09:00:50;;;;;;;6.28;5.25;;;;;;;;;;5067137;28;20135;-72
2021/06/10 09:03:23;;;;;;;7.60;5.05;;;;;;;;;;5067239;28;20394;-72
2021/06/10 09:06:06;;;;;;;5.22;4.75;;;;;;;;;;5069078;28;20051;-72
2021/06/10 09:08:37;;;;;;;6.07;5.53;;;;;;;;;;5070267;28;20133;-72
2021/06/10 09:11:10;;;;;;;5.50;4.93;;;;;;;;;;5068272;28;20048;-72
2021/06/10 09:13:36;;;;;;;;;;;;;;;;;;5066626;28;20045;-72
2021/06/10 09:16:22;;;;;;;6.50;5.25;;;;;;;;;;5068238;28;19965;-72
2021/06/10 09:18:56;;;;;;;6.68;5.25;;;;;;;;;;5066148;28;20127;-72
2021/06/10 09:21:26;;;;;;;7.18;5.22;;;;;;;;;;5066970;28;20118;-72
2021/06/10 09:23:52;;;;;;;7.22;6.00;;;;;;;;;;5068581;28;20588;-72
2021/06/10 09:26:18;;;;;;;7.30;5.55;;;;;;;;;;5066887;28;20517;-72
2021/06/10 09:28:50;;;;;;;6.75;5.40;;;;;;;;;;5069264;28;20048;-72
2021/06/10 09:31:30;;;;;;;7.18;5.63;;;;;;;;;;5068196;28;20054;-72
2021/06/10 09:33:56;;;;;;;7.25;6.38;;;;;;;;;;5067835;28;20099;-72
2021/06/10 09:36:24;;;;;;;6.88;4.60;;;;;;;;;;5068227;28;20040;-72
2021/06/10 09:39:10;;;;;;;6.47;5.93;;;;;;;;;;5067370;28;20032;-71
2021/06/10 09:41:56;;;;;;;14.55;5.28;;;;;;;;;;5069346;28;20054;-71
2021/06/10 09:44:42;;;;;;;11.35;6.35;;;;;;;;;;5069917;28;20051;-72
2021/06/10 09:47:08;;;;;;;8.18;6.65;;;;;;;;;;5049906;28;20056;-72
2021/06/10 09:49:35;;;;;;;8.25;5.90;;;;;;;;;;5050683;28;20111;-72
2021/06/10 09:52:02;;;;;;;9.13;6.93;;;;;;;;;;5068133;28;20064;-72
2021/06/10 09:54:39;;;;;;;6.22;5.63;;;;;;;;;;5069993;28;20040;-72
2021/06/10 09:57:05;;;;;;;7.28;5.57;;;;;;;;;;5063688;28;20062;-72
2021/06/10 09:59:44;;;;;;;5.35;4.82;;;;;;;;;;5067721;28;20075;-70
2021/06/10 10:02:19;;;;;;;8.20;6.03;;;;;;;;;;5065859;28;20048;-72
2021/06/10 10:04:59;;;;;;;9.00;5.25;;;;;;;;;;5067800;28;20040;-72
2021/06/10 10:07:29;;;;;;;6.88;5.65;;;;;;;;;;5068440;28;20465;-72
2021/06/10 10:10:02;;;;;;;8.00;5.68;;;;;;;;;;5068155;28;20486;-72
2021/06/10 10:12:28;;;;;;;;;;;;;;;;;;5069646;28;20072;-72
2021/06/10 10:14:55;;;;;;;7.53;6.13;;;;;;;;;;5067783;28;20318;-72
2021/06/10 10:17:22;;;;;;;7.18;6.55;;;;;;;;;;5069789;28;20039;-70
2021/06/10 10:19:49;;;;;;;9.65;5.82;;;;;;;;;;5071523;28;20051;-71
2021/06/10 10:22:15;;;;;;;8.27;6.15;;;;;;;;;;5059732;28;20515;-72
2021/06/10 10:24:42;;;;;;;7.15;5.55;;;;;;;;;;5061107;28;20055;-72
2021/06/10 10:27:10;;;;;;;6.50;5.90;;;;;;;;;;5062332;28;20495;-71
2021/06/10 10:29:44;;;;;;;6.72;6.00;;;;;;;;;;5060960;28;20074;-70
2021/06/10 10:32:13;;;;;;;14.50;5.68;;;;;;;;;;5060203;28;20062;-70
2021/06/10 10:34:40;;;;;;;6.57;5.85;;;;;;;;;;5059690;28;20429;-70
2021/06/10 10:37:16;;;;;;;9.45;5.82;;;;;;;;;;5060779;28;20052;-71
2021/06/10 10:39:42;;;;;;;7.63;5.80;;;;;;;;;;5063390;28;20060;-70
2021/06/10 10:42:08;;;;;;;6.05;5.53;;;;;;;;;;5061772;28;20221;-70
2021/06/10 10:44:34;;;;;;;7.43;6.43;;;;;;;;;;5044739;28;22012;-71
2021/06/10 10:47:03;;;;;;;10.18;5.78;;;;;;;;;;5060558;28;20045;-71
2021/06/10 10:49:30;;;;;;;8.40;5.57;;;;;;;;;;5063190;28;20044;-71
2021/06/10 10:52:16;;;;;;;6.68;5.43;;;;;;;;;;5061800;28;20056;-71
2021/06/10 10:54:44;;;;;;;5.82;5.22;;;;;;;;;;5061887;28;20052;-70
2021/06/10 10:57:30;;;;;;;6.57;5.35;;;;;;;;;;5061616;28;20056;-71
2021/06/10 10:59:57;;;;;;;7.28;5.53;;;;;;;;;;5060401;28;20387;-70
2021/06/10 11:02:26;;;;;;;5.72;4.75;;;;;;;;;;5061965;28;20078;-70
2021/06/10 11:04:56;;;;;;;5.88;5.18;;;;;;;;;;5059707;28;20056;-71
2021/06/10 11:07:42;;;;;;;6.60;6.00;;;;;;;;;;5060780;28;20116;-71
2021/06/10 11:10:11;;;;;;;7.43;4.72;;;;;;;;;;5047582;28;20091;-71
2021/06/10 11:12:50;;;;;;;6.10;4.82;;;;;;;;;;5062201;28;20082;-71
2021/06/10 11:15:34;;;;;;;5.10;4.70;;;;;;;;;;5060272;28;20524;-71
2021/06/10 11:18:06;;;;;;;;;;;;;;;;;;5059407;28;20041;-70
2021/06/10 11:20:42;;;;;;;8.65;5.47;;;;;;;;;;5062297;28;19924;-71
2021/06/10 11:23:12;;;;;;;9.73;5.88;;;;;;;;;;5060718;28;20175;-70
2021/06/10 11:25:41;;;;;;;9.50;6.57;;;;;;;;;;5058405;28;20154;-70
2021/06/10 11:28:16;;;;;;;11.70;6.30;;;;;;;;;;5060960;28;20866;-70
2021/06/10 11:30:42;;;;;;;7.25;5.88;;;;;;;;;;5056765;28;20049;-72
2021/06/10 11:33:25;;;;;;;10.52;6.28;;;;;;;;;;5060421;28;21005;-71
2021/06/10 11:35:53;;;;;;;16.58;6.47;;;;;;;;;;5056286;28;20415;-71
2021/06/10 11:38:24;;;;;;;7.30;6.32;;;;;;;;;;5056663;28;20052;-69
2021/06/10 11:41:04;;;;;;;9.73;5.25;;;;;;;;;;5056102;28;20348;-69
2021/06/10 11:43:32;;;;;;;8.38;5.65;;;;;;;;;;5056367;28;20087;-69
2021/06/10 11:45:59;;;;;;;7.55;5.60;;;;;;;;;;5058171;28;20041;-69
2021/06/10 11:48:34;;;;;;;5.03;4.57;;;;;;;;;;5058853;28;20388;-67
2021/06/10 11:51:00;;;;;;;4.65;4.20;;;;;;;;;;5035704;28;20056;-69
2021/06/10 11:53:30;;;;;;;5.50;5.03;;;;;;;;;;5058562;28;20047;-70
2021/06/10 11:55:57;;;;;;;4.55;4.15;;;;;;;;;;5054553;28;20080;-70
2021/06/10 11:58:25;;;;;;;6.22;4.55;;;;;;;;;;5058967;28;20049;-70
2021/06/10 12:00:52;;;;;;;7.72;4.57;;;;;;;;;;5062915;28;20101;-69
2021/06/10 12:03:20;;;;;;;8.23;4.93;;;;;;;;;;5065555;28;20068;-70
2021/06/10 12:05:50;;;;;;;6.45;4.85;;;;;;;;;;5066656;28;20090;-70
2021/06/10 12:08:18;;;;;;;5.55;5.15;;;;;;;;;;5063691;28;20098;-70
2021/06/10 12:10:48;;;;;;;5.60;3.92;;;;;;;;;;5065723;28;20056;-70
2021/06/10 12:13:15;;;;;;;7.85;5.45;;;;;;;;;;5063096;28;20452;-70
2021/06/10 12:15:44;;;;;;;5.90;4.35;;;;;;;;;;5055965;28;20108;-70
2021/06/10 12:18:12;;;;;;;6.07;5.43;;;;;;;;;;5065920;28;20193;-70
2021/06/10 12:20:40;;;;;;;7.88;5.25;;;;;;;;;;5066124;28;20043;-70
2021/06/10 12:23:13;;;;;;;5.53;4.50;;;;;;;;;;5064703;28;20036;-71
2021/06/10 12:25:39;;;;;;;;;;;;;;;;;;5048983;28;20524;-71
2021/06/10 12:28:05;;;;;;;7.78;4.95;;;;;;;;;;5064680;28;19975;-71
2021/06/10 12:30:36;;;;;;;7.95;4.15;;;;;;;;;;5068123;28;20080;-71
2021/06/10 12:33:13;;;;;;;5.05;4.20;;;;;;;;;;5069513;28;20052;-71
2021/06/10 12:35:39;;;;;;;6.25;4.88;;;;;;;;;;5069294;28;20522;-71
2021/06/10 12:38:05;;;;;;;4.13;3.72;;;;;;;;;;5070151;28;20454;-71
2021/06/10 12:40:42;;;;;;;4.97;4.18;;;;;;;;;;5068184;28;20064;-70
2021/06/10 12:43:10;;;;;;;7.35;4.00;;;;;;;;;;5069489;28;20531;-69
2021/06/10 12:45:37;;;;;;;6.15;4.43;;;;;;;;;;5069773;28;20510;-69
2021/06/10 12:48:19;;;;;;;5.28;4.30;;;;;;;;;;5069607;28;20053;-70
2021/06/10 12:50:45;;;;;;;5.07;4.50;;;;;;;;;;5068175;28;20459;-70
2021/06/10 12:53:16;;;;;;;4.70;4.22;;;;;;;;;;5069329;28;20096;-70
2021/06/10 12:55:42;;;;;;;6.75;5.07;;;;;;;;;;5069973;28;20044;-70
2021/06/10 12:58:08;;;;;;;4.75;4.35;;;;;;;;;;5069960;28;20045;-70
2021/06/10 13:00:35;;;;;;;5.80;3.70;;;;;;;;;;5069688;28;20178;-70
2021/06/10 13:03:03;;;;;;;4.55;3.70;;;;;;;;;;5069019;28;20135;-70
2021/06/10 13:05:29;;;;;;;6.43;4.47;;;;;;;;;;5069495;28;20040;-70
2021/06/10 13:07:56;;;;;;;5.28;4.22;;;;;;;;;;5050168;28;20752;-70
2021/06/10 13:10:43;;;;;;;3.85;3.55;;;;;;;;;;5067007;28;20043;-70
2021/06/10 13:13:10;;;;;;;4.32;3.92;;;;;;;;;;5064531;28;20044;-70
2021/06/10 13:15:38;;;;;;;3.88;3.55;;;;;;;;;;5069141;28;20040;-70
2021/06/10 13:18:15;;;;;;;4.10;3.70;;;;;;;;;;5071867;28;20047;-70
2021/06/10 13:20:51;;;;;;;5.03;4.13;;;;;;;;;;5069153;28;20070;-70
2021/06/10 13:23:36;;;;;;;3.45;3.08;;;;;;;;;;5066318;28;20210;-70
2021/06/10 13:26:16;;;;;;;3.75;3.42;;;;;;;;;;5066264;28;20083;-70
2021/06/10 13:28:44;;;;;;;4.47;3.67;;;;;;;;;;5068137;28;20045;-69
2021/06/10 13:31:31;;;;;;;4.20;3.50;;;;;;;;;;5062759;28;20044;-70
2021/06/10 13:33:59;;;;;;;4.10;3.65;;;;;;;;;;5049108;28;20037;-70
2021/06/10 13:36:29;;;;;;;4.18;3.88;;;;;;;;;;5084806;28;20501;-70
2021/06/10 13:38:57;;;;;;;4.45;2.95;;;;;;;;;;5071482;28;20068;-70
2021/06/10 13:41:25;;;;;;;6.47;2.88;;;;;;;;;;5069798;28;20259;-69
2021/06/10 13:43:51;;;;;;;4.47;3.28;;;;;;;;;;5064025;28;20033;-70
2021/06/10 13:46:17;;;;;;;5.28;3.85;;;;;;;;;;5069458;28;20495;-70
2021/06/10 13:48:44;;;;;;;6.40;3.83;;;;;;;;;;5070951;28;20584;-70
2021/06/10 13:51:10;;;;;;;6.25;3.65;;;;;;;;;;5063534;28;20583;-70
2021/06/10 13:53:37;;;;;;;6.22;4.00;;;;;;;;;;5062368;28;20532;-70
2021/06/10 13:56:04;;;;;;;4.75;4.28;;;;;;;;;;5063410;28;20110;-70
2021/06/10 13:58:30;;;;;;;4.90;4.03;;;;;;;;;;5062494;28;20400;-70
2021/06/10 14:00:57;;;;;;;4.63;4.13;;;;;;;;;;5063446;28;20605;-70
2021/06/10 14:03:23;;;;;;;3.95;3.42;;;;;;;;;;5063680;28;20041;-70
2021/06/10 14:05:49;;;;;;;4.25;3.40;;;;;;;;;;5064346;28;20085;-70
2021/06/10 14:08:16;;;;;;;4.45;4.00;;;;;;;;;;5062413;28;20052;-70
2021/06/10 14:10:42;;;;;;;5.05;4.55;;;;;;;;;;5064037;28;20404;-69
2021/06/10 14:13:10;;;;;;;6.32;4.82;;;;;;;;;;5061226;28;20063;-69
2021/06/10 14:15:36;;;;;;;7.38;4.65;;;;;;;;;;5062749;28;20135;-70
2021/06/10 14:18:02;;;;;;;8.25;4.13;;;;;;;;;;5061046;28;20155;-70
2021/06/10 14:20:28;;;;;;;3.80;3.45;;;;;;;;;;5063976;28;20131;-70
2021/06/10 14:22:54;;;;;;;6.03;3.80;;;;;;;;;;5063181;28;20444;-70
2021/06/10 14:25:21;;;;;;;3.67;3.33;;;;;;;;;;5063158;28;20056;-70
2021/06/10 14:27:49;;;;;;;4.97;3.75;;;;;;;;;;5061089;28;20048;-70
2021/06/10 14:30:28;;;;;;;4.00;3.60;;;;;;;;;;5061325;28;20060;-70
2021/06/10 14:32:58;;;;;;;7.47;4.20;;;;;;;;;;5062502;28;20510;-71
2021/06/10 14:35:25;;;;;;;4.88;4.38;;;;;;;;;;5065273;28;20391;-71
2021/06/10 14:37:51;;;;;;;5.30;3.53;;;;;;;;;;5059132;28;20479;-69
2021/06/10 14:40:18;;;;;;;6.47;4.93;;;;;;;;;;5062041;28;20825;-70
2021/06/10 14:42:44;;;;;;;4.18;3.63;;;;;;;;;;5062229;28;20083;-70
2021/06/10 14:45:11;;;;;;;5.57;4.00;;;;;;;;;;5060771;28;20582;-69
2021/06/10 14:47:39;;;;;;;4.60;3.28;;;;;;;;;;5059504;28;20045;-70
2021/06/10 14:50:05;;;;;;;11.15;4.47;;;;;;;;;;5061138;28;20519;-71